sensor_id;sensor_type;location;lat;lon;timestamp;P1;durP1;ratioP1;P2;durP2;ratioP2
16101;SDS011;56411;52.964;10.540;2023-02-28T00:00:25;16.30;;;7.87;;
16101;SDS011;56411;52.964;10.540;2023-02-28T00:02:52;18.10;;;7.83;;
16101;SDS011;56411;52.964;10.540;2023-02-28T00:05:22;16.63;;;7.13;;
16101;SDS011;56411;52.964;10.540;2023-02-28T00:07:51;16.30;;;7.50;;
16101;SDS011;56411;52.964;10.540;2023-02-28T00:10:19;15.07;;;7.70;;
16101;SDS011;56411;52.964;10.540;2023-02-28T00:12:48;15.13;;;6.93;;
16101;SDS011;56411;52.964;10.540;2023-02-28T00:15:16;14.90;;;7.20;;
16101;SDS011;56411;52.964;10.540;2023-02-28T00:17:43;17.90;;;7.27;;
16101;SDS011;56411;52.964;10.540;2023-02-28T00:23:35;15.87;;;7.43;;
16101;SDS011;56411;52.964;10.540;2023-02-28T00:26:04;14.90;;;7.07;;
16101;SDS011;56411;52.964;10.540;2023-02-28T00:28:32;16.43;;;8.30;;
16101;SDS011;56411;52.964;10.540;2023-02-28T00:31:01;15.73;;;7.50;;
16101;SDS011;56411;52.964;10.540;2023-02-28T00:33:28;16.10;;;7.80;;
16101;SDS011;56411;52.964;10.540;2023-02-28T00:36:03;15.70;;;7.93;;
16101;SDS011;56411;52.964;10.540;2023-02-28T00:38:32;15.60;;;7.97;;
16101;SDS011;56411;52.964;10.540;2023-02-28T00:41:01;16.50;;;7.87;;
16101;SDS011;56411;52.964;10.540;2023-02-28T00:43:30;17.67;;;8.47;;
16101;SDS011;56411;52.964;10.540;2023-02-28T00:45:59;14.53;;;7.90;;
16101;SDS011;56411;52.964;10.540;2023-02-28T00:48:26;16.23;;;7.90;;
16101;SDS011;56411;52.964;10.540;2023-02-28T00:50:54;16.87;;;8.07;;
16101;SDS011;56411;52.964;10.540;2023-02-28T00:53:21;18.63;;;8.37;;
16101;SDS011;56411;52.964;10.540;2023-02-28T00:55:50;16.87;;;8.23;;
16101;SDS011;56411;52.964;10.540;2023-02-28T00:58:17;15.13;;;7.60;;
16101;SDS011;56411;52.964;10.540;2023-02-28T01:00:45;18.77;;;8.13;;
16101;SDS011;56411;52.964;10.540;2023-02-28T01:03:13;16.57;;;8.07;;
16101;SDS011;56411;52.964;10.540;2023-02-28T01:05:41;15.97;;;7.87;;
16101;SDS011;56411;52.964;10.540;2023-02-28T01:08:08;15.53;;;7.90;;
16101;SDS011;56411;52.964;10.540;2023-02-28T01:10:35;16.57;;;7.87;;
16101;SDS011;56411;52.964;10.540;2023-02-28T01:13:05;14.67;;;7.50;;
16101;SDS011;56411;52.964;10.540;2023-02-28T01:15:32;16.83;;;8.27;;
16101;SDS011;56411;52.964;10.540;2023-02-28T01:17:59;19.73;;;8.50;;
16101;SDS011;56411;52.964;10.540;2023-02-28T01:20:27;17.57;;;8.40;;
16101;SDS011;56411;52.964;10.540;2023-02-28T01:22:54;18.47;;;8.77;;
16101;SDS011;56411;52.964;10.540;2023-02-28T01:25:21;18.23;;;8.93;;
16101;SDS011;56411;52.964;10.540;2023-02-28T01:27:49;17.07;;;8.70;;
16101;SDS011;56411;52.964;10.540;2023-02-28T01:30:19;19.40;;;9.33;;
16101;SDS011;56411;52.964;10.540;2023-02-28T01:32:48;19.87;;;9.03;;
16101;SDS011;56411;52.964;10.540;2023-02-28T01:35:16;19.13;;;9.37;;
16101;SDS011;56411;52.964;10.540;2023-02-28T01:37:44;17.20;;;8.77;;
16101;SDS011;56411;52.964;10.540;2023-02-28T01:40:13;21.13;;;9.43;;
16101;SDS011;56411;52.964;10.540;2023-02-28T01:42:41;18.80;;;9.17;;
16101;SDS011;56411;52.964;10.540;2023-02-28T01:45:21;19.00;;;9.40;;
16101;SDS011;56411;52.964;10.540;2023-02-28T01:47:54;19.43;;;9.20;;
16101;SDS011;56411;52.964;10.540;2023-02-28T01:50:26;19.63;;;9.63;;
16101;SDS011;56411;52.964;10.540;2023-02-28T01:52:57;19.90;;;9.27;;
16101;SDS011;56411;52.964;10.540;2023-02-28T01:55:27;21.97;;;9.33;;
16101;SDS011;56411;52.964;10.540;2023-02-28T01:57:56;22.37;;;10.00;;
16101;SDS011;56411;52.964;10.540;2023-02-28T02:00:27;17.37;;;9.60;;
16101;SDS011;56411;52.964;10.540;2023-02-28T02:02:56;20.23;;;9.83;;
16101;SDS011;56411;52.964;10.540;2023-02-28T02:05:26;20.57;;;10.10;;
16101;SDS011;56411;52.964;10.540;2023-02-28T02:07:56;19.80;;;10.60;;
16101;SDS011;56411;52.964;10.540;2023-02-28T02:10:29;20.57;;;10.80;;
16101;SDS011;56411;52.964;10.540;2023-02-28T02:13:03;19.63;;;9.63;;
16101;SDS011;56411;52.964;10.540;2023-02-28T02:15:47;18.10;;;9.50;;
16101;SDS011;56411;52.964;10.540;2023-02-28T02:18:25;19.53;;;10.00;;
16101;SDS011;56411;52.964;10.540;2023-02-28T02:23:55;20.00;;;9.97;;
16101;SDS011;56411;52.964;10.540;2023-02-28T02:26:58;21.27;;;10.43;;
16101;SDS011;56411;52.964;10.540;2023-02-28T02:29:46;21.10;;;9.77;;
16101;SDS011;56411;52.964;10.540;2023-02-28T02:33:00;22.43;;;10.47;;
16101;SDS011;56411;52.964;10.540;2023-02-28T02:35:45;21.33;;;10.53;;
16101;SDS011;56411;52.964;10.540;2023-02-28T02:38:20;20.20;;;11.03;;
16101;SDS011;56411;52.964;10.540;2023-02-28T02:40:59;18.70;;;9.93;;
16101;SDS011;56411;52.964;10.540;2023-02-28T02:43:35;18.70;;;9.83;;
16101;SDS011;56411;52.964;10.540;2023-02-28T02:46:08;19.77;;;9.30;;
16101;SDS011;56411;52.964;10.540;2023-02-28T02:48:41;19.07;;;9.37;;
16101;SDS011;56411;52.964;10.540;2023-02-28T02:51:12;18.90;;;9.70;;
16101;SDS011;56411;52.964;10.540;2023-02-28T02:53:43;18.23;;;9.00;;
16101;SDS011;56411;52.964;10.540;2023-02-28T02:56:14;18.00;;;8.60;;
16101;SDS011;56411;52.964;10.540;2023-02-28T02:58:45;19.63;;;9.47;;
16101;SDS011;56411;52.964;10.540;2023-02-28T03:01:18;17.73;;;9.03;;
16101;SDS011;56411;52.964;10.540;2023-02-28T03:03:52;17.20;;;8.17;;
16101;SDS011;56411;52.964;10.540;2023-02-28T03:06:23;18.13;;;8.60;;
16101;SDS011;56411;52.964;10.540;2023-02-28T03:08:51;17.33;;;8.93;;
16101;SDS011;56411;52.964;10.540;2023-02-28T03:11:18;17.87;;;9.03;;
16101;SDS011;56411;52.964;10.540;2023-02-28T03:16:54;16.77;;;8.67;;
16101;SDS011;56411;52.964;10.540;2023-02-28T03:19:33;18.47;;;9.53;;
16101;SDS011;56411;52.964;10.540;2023-02-28T03:22:15;18.20;;;8.90;;
16101;SDS011;56411;52.964;10.540;2023-02-28T03:25:02;16.87;;;8.27;;
16101;SDS011;56411;52.964;10.540;2023-02-28T03:27:36;15.93;;;8.13;;
16101;SDS011;56411;52.964;10.540;2023-02-28T03:30:09;16.07;;;8.53;;
16101;SDS011;56411;52.964;10.540;2023-02-28T03:32:42;18.00;;;8.77;;
16101;SDS011;56411;52.964;10.540;2023-02-28T03:35:19;18.20;;;8.70;;
16101;SDS011;56411;52.964;10.540;2023-02-28T03:37:52;19.57;;;9.20;;
16101;SDS011;56411;52.964;10.540;2023-02-28T03:40:22;17.70;;;8.80;;
16101;SDS011;56411;52.964;10.540;2023-02-28T03:42:54;18.00;;;8.73;;
16101;SDS011;56411;52.964;10.540;2023-02-28T03:45:25;17.20;;;8.83;;
16101;SDS011;56411;52.964;10.540;2023-02-28T03:47:57;16.93;;;8.73;;
16101;SDS011;56411;52.964;10.540;2023-02-28T03:50:29;14.90;;;8.10;;
16101;SDS011;56411;52.964;10.540;2023-02-28T03:53:06;17.77;;;8.83;;
16101;SDS011;56411;52.964;10.540;2023-02-28T03:55:39;18.37;;;8.70;;
16101;SDS011;56411;52.964;10.540;2023-02-28T03:58:15;19.37;;;8.33;;
16101;SDS011;56411;52.964;10.540;2023-02-28T04:00:46;18.00;;;8.50;;
16101;SDS011;56411;52.964;10.540;2023-02-28T04:03:17;15.93;;;8.30;;
16101;SDS011;56411;52.964;10.540;2023-02-28T04:05:46;15.97;;;8.13;;
16101;SDS011;56411;52.964;10.540;2023-02-28T04:08:18;17.27;;;9.03;;
16101;SDS011;56411;52.964;10.540;2023-02-28T04:10:48;17.33;;;8.33;;
16101;SDS011;56411;52.964;10.540;2023-02-28T04:13:20;17.60;;;8.83;;
16101;SDS011;56411;52.964;10.540;2023-02-28T04:15:47;20.80;;;8.30;;
16101;SDS011;56411;52.964;10.540;2023-02-28T04:18:14;18.30;;;8.40;;
16101;SDS011;56411;52.964;10.540;2023-02-28T04:20:42;18.77;;;9.33;;
16101;SDS011;56411;52.964;10.540;2023-02-28T04:23:09;16.73;;;8.60;;
16101;SDS011;56411;52.964;10.540;2023-02-28T04:25:38;16.60;;;7.70;;
16101;SDS011;56411;52.964;10.540;2023-02-28T04:28:06;18.17;;;8.60;;
16101;SDS011;56411;52.964;10.540;2023-02-28T04:30:33;16.20;;;8.20;;
16101;SDS011;56411;52.964;10.540;2023-02-28T04:33:01;17.70;;;8.43;;
16101;SDS011;56411;52.964;10.540;2023-02-28T04:35:28;15.47;;;7.83;;
16101;SDS011;56411;52.964;10.540;2023-02-28T04:37:55;19.57;;;9.07;;
16101;SDS011;56411;52.964;10.540;2023-02-28T04:40:23;18.80;;;9.20;;
16101;SDS011;56411;52.964;10.540;2023-02-28T04:42:51;19.60;;;10.27;;
16101;SDS011;56411;52.964;10.540;2023-02-28T04:45:19;21.27;;;9.20;;
16101;SDS011;56411;52.964;10.540;2023-02-28T04:47:46;18.87;;;9.53;;
16101;SDS011;56411;52.964;10.540;2023-02-28T04:50:14;20.13;;;9.40;;
16101;SDS011;56411;52.964;10.540;2023-02-28T04:52:45;17.37;;;8.97;;
16101;SDS011;56411;52.964;10.540;2023-02-28T04:55:15;19.43;;;9.37;;
16101;SDS011;56411;52.964;10.540;2023-02-28T04:57:43;17.43;;;9.60;;
16101;SDS011;56411;52.964;10.540;2023-02-28T05:00:12;19.53;;;9.30;;
16101;SDS011;56411;52.964;10.540;2023-02-28T05:02:41;18.70;;;9.07;;
16101;SDS011;56411;52.964;10.540;2023-02-28T05:05:08;18.27;;;8.70;;
16101;SDS011;56411;52.964;10.540;2023-02-28T05:07:37;18.77;;;9.00;;
16101;SDS011;56411;52.964;10.540;2023-02-28T05:10:04;19.70;;;9.63;;
16101;SDS011;56411;52.964;10.540;2023-02-28T05:12:31;20.37;;;9.57;;
16101;SDS011;56411;52.964;10.540;2023-02-28T05:14:58;20.70;;;9.90;;
16101;SDS011;56411;52.964;10.540;2023-02-28T05:17:28;20.47;;;9.57;;
16101;SDS011;56411;52.964;10.540;2023-02-28T05:19:55;17.43;;;8.83;;
16101;SDS011;56411;52.964;10.540;2023-02-28T05:22:23;18.97;;;9.13;;
16101;SDS011;56411;52.964;10.540;2023-02-28T05:24:50;18.37;;;8.80;;
16101;SDS011;56411;52.964;10.540;2023-02-28T05:27:17;17.77;;;8.83;;
16101;SDS011;56411;52.964;10.540;2023-02-28T05:29:44;18.67;;;8.90;;
16101;SDS011;56411;52.964;10.540;2023-02-28T05:32:11;18.37;;;9.27;;
16101;SDS011;56411;52.964;10.540;2023-02-28T05:34:40;18.87;;;8.57;;
16101;SDS011;56411;52.964;10.540;2023-02-28T05:37:11;17.07;;;8.30;;
16101;SDS011;56411;52.964;10.540;2023-02-28T05:39:39;18.23;;;8.73;;
16101;SDS011;56411;52.964;10.540;2023-02-28T05:42:06;18.43;;;8.83;;
16101;SDS011;56411;52.964;10.540;2023-02-28T05:44:34;17.67;;;8.87;;
16101;SDS011;56411;52.964;10.540;2023-02-28T05:47:02;18.83;;;9.33;;
16101;SDS011;56411;52.964;10.540;2023-02-28T05:49:31;17.87;;;8.47;;
16101;SDS011;56411;52.964;10.540;2023-02-28T05:52:00;17.60;;;8.73;;
16101;SDS011;56411;52.964;10.540;2023-02-28T05:54:27;19.63;;;8.80;;
16101;SDS011;56411;52.964;10.540;2023-02-28T05:56:54;18.97;;;8.97;;
16101;SDS011;56411;52.964;10.540;2023-02-28T05:59:21;18.43;;;8.97;;
16101;SDS011;56411;52.964;10.540;2023-02-28T06:01:49;21.73;;;10.03;;
16101;SDS011;56411;52.964;10.540;2023-02-28T06:04:18;19.37;;;9.83;;
16101;SDS011;56411;52.964;10.540;2023-02-28T06:06:50;22.50;;;10.00;;
16101;SDS011;56411;52.964;10.540;2023-02-28T06:09:18;19.70;;;10.63;;
16101;SDS011;56411;52.964;10.540;2023-02-28T06:11:46;20.40;;;9.83;;
16101;SDS011;56411;52.964;10.540;2023-02-28T06:14:14;18.63;;;9.20;;
16101;SDS011;56411;52.964;10.540;2023-02-28T06:16:42;18.77;;;9.07;;
16101;SDS011;56411;52.964;10.540;2023-02-28T06:19:09;18.33;;;9.40;;
16101;SDS011;56411;52.964;10.540;2023-02-28T06:21:37;18.57;;;8.73;;
16101;SDS011;56411;52.964;10.540;2023-02-28T06:24:05;17.53;;;9.20;;
16101;SDS011;56411;52.964;10.540;2023-02-28T06:26:34;16.33;;;8.27;;
16101;SDS011;56411;52.964;10.540;2023-02-28T06:29:01;17.30;;;8.27;;
16101;SDS011;56411;52.964;10.540;2023-02-28T06:31:29;17.03;;;8.27;;
16101;SDS011;56411;52.964;10.540;2023-02-28T06:33:56;17.13;;;8.83;;
16101;SDS011;56411;52.964;10.540;2023-02-28T06:36:23;19.03;;;8.30;;
16101;SDS011;56411;52.964;10.540;2023-02-28T06:38:51;17.57;;;9.03;;
16101;SDS011;56411;52.964;10.540;2023-02-28T06:41:21;18.57;;;8.47;;
16101;SDS011;56411;52.964;10.540;2023-02-28T06:43:50;19.00;;;8.50;;
16101;SDS011;56411;52.964;10.540;2023-02-28T06:46:18;15.67;;;7.60;;
16101;SDS011;56411;52.964;10.540;2023-02-28T06:48:45;17.67;;;8.30;;
16101;SDS011;56411;52.964;10.540;2023-02-28T06:51:13;17.27;;;8.27;;
16101;SDS011;56411;52.964;10.540;2023-02-28T06:53:42;18.83;;;8.33;;
16101;SDS011;56411;52.964;10.540;2023-02-28T06:56:12;18.77;;;7.97;;
16101;SDS011;56411;52.964;10.540;2023-02-28T06:58:40;18.10;;;8.03;;
16101;SDS011;56411;52.964;10.540;2023-02-28T07:01:09;17.10;;;8.33;;
16101;SDS011;56411;52.964;10.540;2023-02-28T07:03:36;16.70;;;8.73;;
16101;SDS011;56411;52.964;10.540;2023-02-28T07:06:04;18.40;;;9.07;;
16101;SDS011;56411;52.964;10.540;2023-02-28T07:08:31;16.57;;;8.30;;
16101;SDS011;56411;52.964;10.540;2023-02-28T07:10:59;18.87;;;8.07;;
16101;SDS011;56411;52.964;10.540;2023-02-28T07:13:26;18.03;;;8.53;;
16101;SDS011;56411;52.964;10.540;2023-02-28T07:15:53;16.43;;;7.83;;
16101;SDS011;56411;52.964;10.540;2023-02-28T07:18:23;28.83;;;17.57;;
16101;SDS011;56411;52.964;10.540;2023-02-28T07:20:50;19.27;;;10.23;;
16101;SDS011;56411;52.964;10.540;2023-02-28T07:23:18;19.83;;;10.63;;
16101;SDS011;56411;52.964;10.540;2023-02-28T07:25:45;22.80;;;9.70;;
16101;SDS011;56411;52.964;10.540;2023-02-28T07:28:13;18.63;;;9.83;;
16101;SDS011;56411;52.964;10.540;2023-02-28T07:30:40;18.13;;;9.90;;
16101;SDS011;56411;52.964;10.540;2023-02-28T07:33:07;19.20;;;9.63;;
16101;SDS011;56411;52.964;10.540;2023-02-28T07:35:38;17.73;;;10.00;;
16101;SDS011;56411;52.964;10.540;2023-02-28T07:38:05;21.50;;;10.33;;
16101;SDS011;56411;52.964;10.540;2023-02-28T07:40:33;19.10;;;10.13;;
16101;SDS011;56411;52.964;10.540;2023-02-28T07:43:01;18.67;;;10.13;;
16101;SDS011;56411;52.964;10.540;2023-02-28T07:45:29;18.63;;;10.40;;
16101;SDS011;56411;52.964;10.540;2023-02-28T07:47:59;24.73;;;12.07;;
16101;SDS011;56411;52.964;10.540;2023-02-28T07:50:26;21.10;;;10.93;;
16101;SDS011;56411;52.964;10.540;2023-02-28T07:52:57;21.00;;;11.23;;
16101;SDS011;56411;52.964;10.540;2023-02-28T07:55:24;22.07;;;11.63;;
16101;SDS011;56411;52.964;10.540;2023-02-28T07:57:51;21.60;;;12.23;;
16101;SDS011;56411;52.964;10.540;2023-02-28T08:00:19;20.13;;;12.07;;
16101;SDS011;56411;52.964;10.540;2023-02-28T08:02:46;22.03;;;12.80;;
16101;SDS011;56411;52.964;10.540;2023-02-28T08:05:14;21.60;;;12.13;;
16101;SDS011;56411;52.964;10.540;2023-02-28T08:07:41;21.27;;;12.17;;
16101;SDS011;56411;52.964;10.540;2023-02-28T08:10:11;23.07;;;12.00;;
16101;SDS011;56411;52.964;10.540;2023-02-28T08:12:38;20.63;;;11.33;;
16101;SDS011;56411;52.964;10.540;2023-02-28T08:15:06;21.10;;;11.87;;
16101;SDS011;56411;52.964;10.540;2023-02-28T08:17:34;19.13;;;12.30;;
16101;SDS011;56411;52.964;10.540;2023-02-28T08:20:01;19.67;;;11.77;;
16101;SDS011;56411;52.964;10.540;2023-02-28T08:22:29;20.13;;;11.97;;
16101;SDS011;56411;52.964;10.540;2023-02-28T08:24:56;21.33;;;11.40;;
16101;SDS011;56411;52.964;10.540;2023-02-28T08:27:25;19.90;;;11.37;;
16101;SDS011;56411;52.964;10.540;2023-02-28T08:29:52;22.30;;;12.07;;
16101;SDS011;56411;52.964;10.540;2023-02-28T08:32:19;19.17;;;11.67;;
16101;SDS011;56411;52.964;10.540;2023-02-28T08:34:46;20.23;;;11.40;;
16101;SDS011;56411;52.964;10.540;2023-02-28T08:37:14;21.83;;;11.87;;
16101;SDS011;56411;52.964;10.540;2023-02-28T08:39:41;18.10;;;10.57;;
16101;SDS011;56411;52.964;10.540;2023-02-28T08:42:09;17.23;;;10.67;;
16101;SDS011;56411;52.964;10.540;2023-02-28T08:44:37;18.70;;;10.40;;
16101;SDS011;56411;52.964;10.540;2023-02-28T08:47:05;18.67;;;10.33;;
16101;SDS011;56411;52.964;10.540;2023-02-28T08:49:32;17.20;;;9.83;;
16101;SDS011;56411;52.964;10.540;2023-02-28T08:52:00;17.63;;;10.00;;
16101;SDS011;56411;52.964;10.540;2023-02-28T08:54:27;16.90;;;8.70;;
16101;SDS011;56411;52.964;10.540;2023-02-28T08:56:56;17.20;;;8.93;;
16101;SDS011;56411;52.964;10.540;2023-02-28T08:59:23;15.10;;;8.63;;
16101;SDS011;56411;52.964;10.540;2023-02-28T09:01:52;17.37;;;8.60;;
16101;SDS011;56411;52.964;10.540;2023-02-28T09:04:20;17.00;;;8.23;;
16101;SDS011;56411;52.964;10.540;2023-02-28T09:06:47;14.40;;;7.27;;
16101;SDS011;56411;52.964;10.540;2023-02-28T09:09:15;16.57;;;7.13;;
16101;SDS011;56411;52.964;10.540;2023-02-28T09:11:42;14.27;;;7.53;;
16101;SDS011;56411;52.964;10.540;2023-02-28T09:14:09;15.10;;;7.30;;
16101;SDS011;56411;52.964;10.540;2023-02-28T09:16:36;13.57;;;7.00;;
16101;SDS011;56411;52.964;10.540;2023-02-28T09:19:05;16.10;;;7.53;;
16101;SDS011;56411;52.964;10.540;2023-02-28T09:21:32;15.63;;;6.57;;
16101;SDS011;56411;52.964;10.540;2023-02-28T09:23:59;11.13;;;5.53;;
16101;SDS011;56411;52.964;10.540;2023-02-28T09:26:27;11.87;;;6.30;;
16101;SDS011;56411;52.964;10.540;2023-02-28T09:28:54;11.63;;;5.70;;
16101;SDS011;56411;52.964;10.540;2023-02-28T09:31:24;11.93;;;6.03;;
16101;SDS011;56411;52.964;10.540;2023-02-28T09:33:54;14.47;;;5.90;;
16101;SDS011;56411;52.964;10.540;2023-02-28T09:36:24;11.67;;;5.13;;
16101;SDS011;56411;52.964;10.540;2023-02-28T09:38:53;10.20;;;5.10;;
16101;SDS011;56411;52.964;10.540;2023-02-28T09:41:22;10.27;;;4.93;;
16101;SDS011;56411;52.964;10.540;2023-02-28T09:43:53;10.47;;;4.53;;
16101;SDS011;56411;52.964;10.540;2023-02-28T09:46:28;9.80;;;4.70;;
16101;SDS011;56411;52.964;10.540;2023-02-28T09:48:59;11.43;;;4.67;;
16101;SDS011;56411;52.964;10.540;2023-02-28T09:51:36;9.37;;;4.37;;
16101;SDS011;56411;52.964;10.540;2023-02-28T09:54:11;7.63;;;3.30;;
16101;SDS011;56411;52.964;10.540;2023-02-28T09:56:44;8.67;;;3.50;;
16101;SDS011;56411;52.964;10.540;2023-02-28T09:59:18;9.17;;;3.30;;
16101;SDS011;56411;52.964;10.540;2023-02-28T10:01:55;6.80;;;2.90;;
16101;SDS011;56411;52.964;10.540;2023-02-28T10:04:34;7.17;;;2.97;;
16101;SDS011;56411;52.964;10.540;2023-02-28T10:07:13;6.43;;;2.60;;
16101;SDS011;56411;52.964;10.540;2023-02-28T10:09:46;5.53;;;2.50;;
16101;SDS011;56411;52.964;10.540;2023-02-28T10:12:18;5.33;;;2.40;;
16101;SDS011;56411;52.964;10.540;2023-02-28T10:14:47;5.90;;;2.30;;
16101;SDS011;56411;52.964;10.540;2023-02-28T10:17:19;4.93;;;2.30;;
16101;SDS011;56411;52.964;10.540;2023-02-28T10:19:53;5.47;;;2.40;;
16101;SDS011;56411;52.964;10.540;2023-02-28T10:22:26;4.83;;;2.43;;
16101;SDS011;56411;52.964;10.540;2023-02-28T10:24:58;5.00;;;2.00;;
16101;SDS011;56411;52.964;10.540;2023-02-28T10:27:29;5.57;;;2.40;;
16101;SDS011;56411;52.964;10.540;2023-02-28T10:29:58;4.57;;;2.20;;
16101;SDS011;56411;52.964;10.540;2023-02-28T10:32:27;5.97;;;2.40;;
16101;SDS011;56411;52.964;10.540;2023-02-28T10:34:57;3.87;;;2.23;;
16101;SDS011;56411;52.964;10.540;2023-02-28T10:37:28;5.73;;;2.30;;
16101;SDS011;56411;52.964;10.540;2023-02-28T10:39:57;6.43;;;2.57;;
16101;SDS011;56411;52.964;10.540;2023-02-28T10:42:25;5.27;;;2.40;;
16101;SDS011;56411;52.964;10.540;2023-02-28T10:45:06;6.07;;;2.50;;
16101;SDS011;56411;52.964;10.540;2023-02-28T10:47:40;4.40;;;2.00;;
16101;SDS011;56411;52.964;10.540;2023-02-28T10:50:29;6.20;;;2.20;;
16101;SDS011;56411;52.964;10.540;2023-02-28T10:56:01;4.73;;;2.10;;
16101;SDS011;56411;52.964;10.540;2023-02-28T10:58:31;4.37;;;2.20;;
16101;SDS011;56411;52.964;10.540;2023-02-28T11:01:12;6.60;;;2.50;;
16101;SDS011;56411;52.964;10.540;2023-02-28T11:03:41;6.37;;;2.27;;
16101;SDS011;56411;52.964;10.540;2023-02-28T11:06:13;6.03;;;2.10;;
16101;SDS011;56411;52.964;10.540;2023-02-28T11:08:48;6.77;;;2.20;;
16101;SDS011;56411;52.964;10.540;2023-02-28T11:11:18;7.27;;;3.23;;
16101;SDS011;56411;52.964;10.540;2023-02-28T11:13:49;4.97;;;2.20;;
16101;SDS011;56411;52.964;10.540;2023-02-28T11:16:18;4.97;;;2.40;;
16101;SDS011;56411;52.964;10.540;2023-02-28T11:18:47;6.13;;;2.27;;
16101;SDS011;56411;52.964;10.540;2023-02-28T11:21:17;3.37;;;2.00;;
16101;SDS011;56411;52.964;10.540;2023-02-28T11:23:51;3.13;;;1.80;;
16101;SDS011;56411;52.964;10.540;2023-02-28T11:26:38;6.60;;;2.27;;
16101;SDS011;56411;52.964;10.540;2023-02-28T11:29:12;5.10;;;2.07;;
16101;SDS011;56411;52.964;10.540;2023-02-28T11:31:52;6.27;;;2.20;;
16101;SDS011;56411;52.964;10.540;2023-02-28T11:34:29;9.07;;;2.40;;
16101;SDS011;56411;52.964;10.540;2023-02-28T11:36:56;9.60;;;3.33;;
16101;SDS011;56411;52.964;10.540;2023-02-28T11:39:26;12.00;;;3.60;;
16101;SDS011;56411;52.964;10.540;2023-02-28T11:45:01;5.57;;;2.20;;
16101;SDS011;56411;52.964;10.540;2023-02-28T11:47:38;7.50;;;2.80;;
16101;SDS011;56411;52.964;10.540;2023-02-28T11:50:14;7.83;;;2.97;;
16101;SDS011;56411;52.964;10.540;2023-02-28T11:52:47;11.47;;;3.43;;
16101;SDS011;56411;52.964;10.540;2023-02-28T11:55:20;10.30;;;3.47;;
16101;SDS011;56411;52.964;10.540;2023-02-28T11:58:00;5.97;;;2.30;;
16101;SDS011;56411;52.964;10.540;2023-02-28T12:00:57;13.77;;;4.57;;
16101;SDS011;56411;52.964;10.540;2023-02-28T12:03:38;8.20;;;3.00;;
16101;SDS011;56411;52.964;10.540;2023-02-28T12:06:14;15.52;;;5.13;;
16101;SDS011;56411;52.964;10.540;2023-02-28T12:08:49;8.48;;;3.28;;
16101;SDS011;56411;52.964;10.540;2023-02-28T12:11:46;6.03;;;2.50;;
16101;SDS011;56411;52.964;10.540;2023-02-28T12:14:22;9.10;;;4.70;;
16101;SDS011;56411;52.964;10.540;2023-02-28T12:17:12;11.97;;;5.47;;
16101;SDS011;56411;52.964;10.540;2023-02-28T12:19:48;5.75;;;1.80;;
16101;SDS011;56411;52.964;10.540;2023-02-28T12:22:28;4.00;;;2.00;;
16101;SDS011;56411;52.964;10.540;2023-02-28T12:25:09;3.83;;;1.80;;
16101;SDS011;56411;52.964;10.540;2023-02-28T12:28:10;4.78;;;2.00;;
16101;SDS011;56411;52.964;10.540;2023-02-28T12:30:41;7.78;;;3.17;;
16101;SDS011;56411;52.964;10.540;2023-02-28T12:33:17;3.35;;;1.60;;
16101;SDS011;56411;52.964;10.540;2023-02-28T12:35:49;5.10;;;2.03;;
16101;SDS011;56411;52.964;10.540;2023-02-28T12:38:22;4.80;;;2.10;;
16101;SDS011;56411;52.964;10.540;2023-02-28T12:40:53;4.20;;;2.10;;
16101;SDS011;56411;52.964;10.540;2023-02-28T12:43:25;4.95;;;2.00;;
16101;SDS011;56411;52.964;10.540;2023-02-28T12:45:56;3.30;;;1.80;;
16101;SDS011;56411;52.964;10.540;2023-02-28T12:48:28;4.57;;;1.80;;
16101;SDS011;56411;52.964;10.540;2023-02-28T12:51:03;1.70;;;1.60;;
16101;SDS011;56411;52.964;10.540;2023-02-28T12:53:35;4.47;;;1.80;;
16101;SDS011;56411;52.964;10.540;2023-02-28T12:56:15;4.88;;;1.90;;
16101;SDS011;56411;52.964;10.540;2023-02-28T12:58:48;4.80;;;1.80;;
16101;SDS011;56411;52.964;10.540;2023-02-28T13:04:26;5.70;;;1.88;;
16101;SDS011;56411;52.964;10.540;2023-02-28T13:07:17;2.10;;;1.60;;
16101;SDS011;56411;52.964;10.540;2023-02-28T13:10:04;3.80;;;1.75;;
16101;SDS011;56411;52.964;10.540;2023-02-28T13:12:32;3.00;;;1.70;;
16101;SDS011;56411;52.964;10.540;2023-02-28T13:15:04;3.42;;;1.70;;
16101;SDS011;56411;52.964;10.540;2023-02-28T13:17:37;3.38;;;1.80;;
16101;SDS011;56411;52.964;10.540;2023-02-28T13:20:14;4.38;;;1.70;;
16101;SDS011;56411;52.964;10.540;2023-02-28T13:22:44;3.22;;;1.83;;
16101;SDS011;56411;52.964;10.540;2023-02-28T13:31:19;5.35;;;1.92;;
16101;SDS011;56411;52.964;10.540;2023-02-28T13:36:39;3.83;;;1.90;;
16101;SDS011;56411;52.964;10.540;2023-02-28T13:42:23;4.53;;;1.90;;
16101;SDS011;56411;52.964;10.540;2023-02-28T13:45:22;8.85;;;3.80;;
16101;SDS011;56411;52.964;10.540;2023-02-28T13:47:53;6.50;;;2.78;;
16101;SDS011;56411;52.964;10.540;2023-02-28T13:50:29;9.13;;;3.72;;
16101;SDS011;56411;52.964;10.540;2023-02-28T13:56:07;10.30;;;3.80;;
16101;SDS011;56411;52.964;10.540;2023-02-28T13:58:49;5.40;;;2.42;;
16101;SDS011;56411;52.964;10.540;2023-02-28T14:01:24;10.07;;;3.97;;
16101;SDS011;56411;52.964;10.540;2023-02-28T14:07:15;7.43;;;3.20;;
16101;SDS011;56411;52.964;10.540;2023-02-28T14:09:47;4.38;;;2.00;;
16101;SDS011;56411;52.964;10.540;2023-02-28T14:15:39;3.65;;;2.00;;
16101;SDS011;56411;52.964;10.540;2023-02-28T14:18:26;3.55;;;2.00;;
16101;SDS011;56411;52.964;10.540;2023-02-28T14:21:03;12.35;;;4.43;;
16101;SDS011;56411;52.964;10.540;2023-02-28T14:26:51;8.50;;;3.33;;
16101;SDS011;56411;52.964;10.540;2023-02-28T14:29:36;6.75;;;2.70;;
16101;SDS011;56411;52.964;10.540;2023-02-28T14:32:21;5.60;;;2.50;;
16101;SDS011;56411;52.964;10.540;2023-02-28T14:34:55;6.75;;;2.88;;
16101;SDS011;56411;52.964;10.540;2023-02-28T14:37:32;25.58;;;14.35;;
16101;SDS011;56411;52.964;10.540;2023-02-28T14:40:04;17.33;;;7.38;;
16101;SDS011;56411;52.964;10.540;2023-02-28T14:42:45;4.65;;;2.20;;
16101;SDS011;56411;52.964;10.540;2023-02-28T14:45:17;3.88;;;1.90;;
16101;SDS011;56411;52.964;10.540;2023-02-28T14:47:46;4.82;;;2.13;;
16101;SDS011;56411;52.964;10.540;2023-02-28T14:50:18;4.38;;;2.00;;
16101;SDS011;56411;52.964;10.540;2023-02-28T14:52:49;5.53;;;2.00;;
16101;SDS011;56411;52.964;10.540;2023-02-28T14:55:20;3.83;;;2.20;;
16101;SDS011;56411;52.964;10.540;2023-02-28T14:57:55;4.75;;;2.10;;
16101;SDS011;56411;52.964;10.540;2023-02-28T15:00:24;6.88;;;2.67;;
16101;SDS011;56411;52.964;10.540;2023-02-28T15:02:53;4.00;;;2.20;;
16101;SDS011;56411;52.964;10.540;2023-02-28T15:05:28;5.20;;;2.10;;
16101;SDS011;56411;52.964;10.540;2023-02-28T15:08:05;4.97;;;2.20;;
16101;SDS011;56411;52.964;10.540;2023-02-28T15:10:36;7.03;;;2.53;;
16101;SDS011;56411;52.964;10.540;2023-02-28T15:13:05;4.97;;;2.38;;
16101;SDS011;56411;52.964;10.540;2023-02-28T15:15:40;4.63;;;2.10;;
16101;SDS011;56411;52.964;10.540;2023-02-28T15:18:10;5.45;;;2.40;;
16101;SDS011;56411;52.964;10.540;2023-02-28T15:20:48;5.18;;;2.20;;
16101;SDS011;56411;52.964;10.540;2023-02-28T15:23:18;5.00;;;2.20;;
16101;SDS011;56411;52.964;10.540;2023-02-28T15:25:47;5.45;;;2.13;;
16101;SDS011;56411;52.964;10.540;2023-02-28T15:28:16;7.07;;;2.10;;
16101;SDS011;56411;52.964;10.540;2023-02-28T15:30:56;6.00;;;2.22;;